Time;durP1;ratioP1;P1;durP2;ratioP2;P2;SDS_P1;SDS_P2;PMS_P1;PMS_P2;Temp;Humidity;BMP_temperature;BMP_pressure;BME280_temperature;BME280_humidity;BME280_pressure;Samples;Min_cycle;Max_cycle;Signal;HPM_P1;HPM_P2
2023/10/14 00:01:04;;;;;;;0.50;0.50;;;14.80;99.90;;;;;;5094242;28;20519;-76
2023/10/14 00:03:33;;;;;;;0.30;0.30;;;14.70;99.90;;;;;;5093411;28;20085;-75
2023/10/14 00:06:10;;;;;;;0.35;0.35;;;14.70;99.90;;;;;;5094258;28;20040;-75
2023/10/14 00:08:48;;;;;;;0.40;0.40;;;14.70;99.90;;;;;;5093950;28;20123;-75
2023/10/14 00:11:17;;;;;;;0.40;0.40;;;14.70;99.90;;;;;;5093571;28;20109;-75
2023/10/14 00:13:49;;;;;;;0.30;0.30;;;14.60;99.90;;;;;;5093934;28;20059;-76
2023/10/14 00:18:59;;;;;;;0.38;0.38;;;14.60;99.90;;;;;;5094139;28;20044;-76
2023/10/14 00:21:26;;;;;;;0.32;0.32;;;14.60;99.90;;;;;;5093952;28;20118;-76
2023/10/14 00:23:56;;;;;;;0.38;0.38;;;14.60;99.90;;;;;;5094097;28;20040;-76
2023/10/14 00:26:25;;;;;;;0.30;0.30;;;14.50;99.90;;;;;;5093603;28;20082;-76
2023/10/14 00:28:54;;;;;;;0.32;0.32;;;14.60;99.90;;;;;;5093953;28;20032;-76
2023/10/14 00:31:23;;;;;;;0.30;0.30;;;14.60;99.90;;;;;;5094122;28;20391;-76
2023/10/14 00:33:52;;;;;;;0.40;0.40;;;14.50;99.90;;;;;;5093906;28;20032;-76
2023/10/14 00:36:22;;;;;;;0.60;0.60;;;14.50;99.90;;;;;;5093875;28;20044;-76
2023/10/14 00:38:55;;;;;;;0.40;0.40;;;14.50;99.90;;;;;;5093661;28;20043;-76
2023/10/14 00:41:25;;;;;;;0.30;0.30;;;14.40;99.90;;;;;;5093655;28;20062;-76
2023/10/14 00:43:50;;;;;;;0.38;0.38;;;14.40;99.90;;;;;;5093765;28;20480;-76
2023/10/14 00:46:17;;;;;;;0.57;0.53;;;14.30;99.90;;;;;;5094002;28;20051;-76
2023/10/14 00:48:46;;;;;;;0.32;0.32;;;14.30;99.90;;;;;;5093825;28;20040;-75
2023/10/14 00:51:14;;;;;;;0.35;0.35;;;14.20;99.90;;;;;;5093511;28;20543;-75
2023/10/14 00:53:51;;;;;;;0.40;0.40;;;14.20;99.90;;;;;;5093622;28;20115;-76
2023/10/14 00:56:18;;;;;;;0.60;0.60;;;14.10;99.90;;;;;;5094132;28;20044;-76
2023/10/14 00:58:49;;;;;;;;;;;14.20;99.90;;;;;;5093745;28;20531;-76
2023/10/14 01:01:17;;;;;;;0.40;0.40;;;14.10;99.90;;;;;;5093853;28;20356;-76
2023/10/14 01:03:43;;;;;;;0.40;0.40;;;14.00;99.90;;;;;;5093517;28;20036;-75
2023/10/14 01:06:23;;;;;;;1.17;0.97;;;14.00;99.90;;;;;;5093490;28;20058;-76
2023/10/14 01:08:52;;;;;;;0.50;0.50;;;14.60;99.90;;;;;;5094384;28;20048;-75
2023/10/14 01:11:20;;;;;;;0.40;0.40;;;13.80;99.90;;;;;;5094047;28;20112;-76
2023/10/14 01:13:45;;;;;;;1.95;0.60;;;13.80;99.90;;;;;;5093679;28;20047;-75
2023/10/14 01:16:12;;;;;;;0.50;0.50;;;13.80;99.90;;;;;;5093898;28;20044;-75
2023/10/14 01:18:41;;;;;;;0.50;0.50;;;13.70;99.90;;;;;;5093605;28;20097;-76
2023/10/14 01:21:07;;;;;;;0.40;0.40;;;13.70;99.90;;;;;;5093237;28;20093;-76
2023/10/14 01:23:37;;;;;;;0.50;0.50;;;13.60;99.90;;;;;;5093349;28;20040;-76
2023/10/14 01:26:09;;;;;;;0.40;0.40;;;13.60;99.90;;;;;;5094126;28;20383;-75
2023/10/14 01:28:42;;;;;;;0.40;0.40;;;13.60;99.90;;;;;;5096705;28;20097;-75
2023/10/14 01:31:33;;;;;;;0.45;0.45;;;13.50;99.90;;;;;;5097360;28;20483;-75
2023/10/14 01:34:04;;;;;;;1.52;0.77;;;13.60;99.90;;;;;;5097595;28;20387;-76
2023/10/14 01:36:37;;;;;;;0.57;0.57;;;13.50;99.90;;;;;;5097601;28;20044;-76
2023/10/14 01:39:09;;;;;;;0.40;0.40;;;13.50;99.90;;;;;;5097238;28;20055;-76
2023/10/14 01:41:34;;;;;;;0.60;0.60;;;13.40;99.90;;;;;;5097230;28;20044;-76
2023/10/14 01:44:03;;;;;;;0.40;0.40;;;13.40;99.90;;;;;;5097013;28;20095;-76
2023/10/14 01:46:30;;;;;;;5.22;1.63;;;13.40;99.90;;;;;;5096927;28;20039;-76
2023/10/14 01:48:55;;;;;;;1.23;0.50;;;13.30;99.90;;;;;;5096742;28;20464;-75
2023/10/14 01:51:21;;;;;;;0.67;0.60;;;13.20;99.90;;;;;;5096993;28;20058;-75
2023/10/14 01:53:47;;;;;;;0.40;0.40;;;13.20;99.90;;;;;;5096876;28;20044;-75
2023/10/14 01:56:13;;;;;;;0.50;0.50;;;13.10;99.90;;;;;;5097027;28;20463;-76
2023/10/14 01:58:40;;;;;;;0.40;0.40;;;13.10;99.90;;;;;;5079057;28;20130;-76
2023/10/14 02:03:41;;;;;;;0.45;0.45;;;13.00;99.90;;;;;;5097032;28;20492;-75
2023/10/14 02:06:11;;;;;;;0.40;0.40;;;12.90;99.90;;;;;;5096703;28;20361;-76
2023/10/14 02:08:38;;;;;;;0.50;0.50;;;12.80;99.90;;;;;;5097096;28;20102;-75
2023/10/14 02:11:04;;;;;;;0.50;0.50;;;12.80;99.90;;;;;;5094748;28;20083;-75
2023/10/14 02:13:30;;;;;;;0.40;0.40;;;12.70;99.90;;;;;;5096724;28;20123;-75
2023/10/14 02:15:59;;;;;;;0.50;0.50;;;12.70;99.90;;;;;;5096843;28;20483;-75
2023/10/14 02:18:25;;;;;;;0.75;0.75;;;12.60;99.90;;;;;;5096534;28;20544;-75
2023/10/14 02:21:05;;;;;;;0.47;0.47;;;12.70;99.90;;;;;;5096579;28;20165;-75
2023/10/14 02:23:44;;;;;;;0.50;0.50;;;12.50;99.90;;;;;;5096499;28;20278;-75
2023/10/14 02:26:25;;;;;;;0.40;0.40;;;12.40;99.90;;;;;;5096704;28;20044;-75
2023/10/14 02:28:54;;;;;;;0.40;0.40;;;12.50;99.90;;;;;;5096263;28;20040;-75
2023/10/14 02:31:41;;;;;;;0.50;0.50;;;12.40;99.90;;;;;;5096139;28;20059;-75
2023/10/14 02:34:06;;;;;;;0.40;0.40;;;12.40;99.90;;;;;;5096221;28;20048;-75
2023/10/14 02:36:49;;;;;;;0.40;0.40;;;12.40;99.90;;;;;;5095841;28;20039;-75
2023/10/14 02:39:16;;;;;;;0.38;0.38;;;12.30;99.90;;;;;;5095045;28;20051;-75
2023/10/14 02:41:58;;;;;;;0.50;0.50;;;12.30;99.90;;;;;;5095991;28;20083;-75
2023/10/14 02:44:28;;;;;;;0.60;0.60;;;12.30;99.90;;;;;;5095922;28;20040;-75
2023/10/14 02:46:54;;;;;;;0.40;0.40;;;12.20;99.90;;;;;;5095642;28;20048;-75
2023/10/14 02:49:25;;;;;;;0.50;0.50;;;12.20;99.90;;;;;;5094625;28;20059;-75
2023/10/14 02:51:52;;;;;;;0.50;0.50;;;12.10;99.90;;;;;;5094711;28;20115;-76
2023/10/14 02:54:33;;;;;;;0.50;0.50;;;12.10;99.90;;;;;;5095725;28;20047;-76
2023/10/14 02:57:00;;;;;;;0.50;0.50;;;12.20;99.90;;;;;;5095719;28;20425;-75
2023/10/14 03:02:14;;;;;;;0.50;0.50;;;12.00;99.90;;;;;;5095979;28;20044;-76
2023/10/14 03:10:19;;;;;;;0.50;0.50;;;11.80;99.90;;;;;;5096022;28;20391;-75
2023/10/14 03:12:49;;;;;;;0.60;0.60;;;11.80;99.90;;;;;;5095698;28;20079;-75
2023/10/14 03:15:20;;;;;;;0.50;0.50;;;11.70;99.90;;;;;;5094355;28;20044;-75
2023/10/14 03:17:55;;;;;;;0.50;0.50;;;11.70;99.90;;;;;;5094977;28;20122;-75
2023/10/14 03:22:54;;;;;;;0.50;0.50;;;11.60;99.90;;;;;;5095373;28;20044;-76
2023/10/14 03:25:23;;;;;;;0.50;0.50;;;11.60;99.90;;;;;;5095078;28;20437;-75
2023/10/14 03:27:59;;;;;;;0.50;0.50;;;11.50;99.90;;;;;;5095026;28;20072;-75
2023/10/14 03:30:28;;;;;;;1.02;0.50;;;11.50;99.90;;;;;;5093909;28;20100;-76
2023/10/14 03:32:54;;;;;;;0.50;0.50;;;11.40;99.90;;;;;;5094892;28;20048;-75
2023/10/14 03:35:22;;;;;;;;;;;11.30;99.90;;;;;;5095219;28;20052;-75
2023/10/14 03:37:58;;;;;;;0.57;0.57;;;11.40;99.90;;;;;;5094914;28;19920;-75
2023/10/14 03:43:10;;;;;;;0.60;0.60;;;11.30;99.90;;;;;;5094928;28;20040;-75
2023/10/14 03:45:47;;;;;;;0.50;0.50;;;11.30;99.90;;;;;;5094776;28;20047;-75
2023/10/14 03:48:13;;;;;;;0.50;0.50;;;11.20;99.90;;;;;;5094810;28;20038;-75
2023/10/14 03:50:39;;;;;;;0.50;0.50;;;11.30;99.90;;;;;;5094643;28;20051;-75
2023/10/14 03:53:08;;;;;;;0.50;0.50;;;11.20;99.90;;;;;;5094890;28;20331;-76
2023/10/14 03:55:33;;;;;;;1.65;0.73;;;11.10;99.90;;;;;;5093400;28;20040;-75
2023/10/14 03:58:08;;;;;;;0.60;0.60;;;11.10;99.90;;;;;;5093532;28;20060;-75
2023/10/14 04:00:37;;;;;;;0.50;0.50;;;11.00;99.90;;;;;;5094812;28;20043;-75
2023/10/14 04:03:11;;;;;;;0.50;0.50;;;11.00;99.90;;;;;;5094266;28;20043;-75
2023/10/14 04:05:59;;;;;;;0.60;0.60;;;11.00;99.90;;;;;;5094563;28;20149;-75
2023/10/14 04:08:30;;;;;;;;;;;11.60;99.90;;;;;;5094304;28;20048;-75
2023/10/14 04:11:11;;;;;;;0.50;0.50;;;10.90;99.90;;;;;;5094311;28;20363;-75
2023/10/14 04:13:40;;;;;;;0.50;0.50;;;10.90;99.90;;;;;;5094398;28;20036;-75
2023/10/14 04:16:07;;;;;;;0.50;0.50;;;10.90;99.90;;;;;;5094215;28;20036;-75
2023/10/14 04:18:36;;;;;;;0.50;0.50;;;10.90;99.90;;;;;;5094582;28;20048;-76
2023/10/14 04:23:42;;;;;;;0.50;0.50;;;10.80;99.90;;;;;;5094689;28;20058;-75
2023/10/14 04:26:11;;;;;;;0.93;0.93;;;11.00;99.90;;;;;;5093934;28;20384;-75
2023/10/14 04:28:53;;;;;;;0.50;0.50;;;10.80;99.90;;;;;;5094096;28;20126;-75
2023/10/14 04:31:26;;;;;;;0.57;0.57;;;10.90;99.90;;;;;;5093981;28;20043;-82
2023/10/14 04:33:54;;;;;;;0.50;0.50;;;10.70;99.90;;;;;;5093253;28;20036;-75
2023/10/14 04:36:38;;;;;;;0.50;0.50;;;10.60;99.90;;;;;;5092729;28;20040;-75
2023/10/14 04:39:12;;;;;;;0.50;0.50;;;10.70;99.90;;;;;;5093857;28;20055;-75
2023/10/14 04:41:45;;;;;;;0.50;0.50;;;10.70;99.90;;;;;;5093780;28;20385;-75
2023/10/14 04:44:12;;;;;;;0.60;0.60;;;10.70;99.90;;;;;;5094203;28;20048;-75
2023/10/14 04:46:54;;;;;;;0.50;0.50;;;10.70;99.90;;;;;;5093679;28;20123;-75
2023/10/14 04:49:29;;;;;;;0.50;0.50;;;10.80;99.90;;;;;;5093989;28;20056;-75
2023/10/14 04:51:58;;;;;;;0.50;0.50;;;11.00;99.90;;;;;;5093843;28;20043;-75
2023/10/14 04:54:25;;;;;;;0.50;0.50;;;10.80;99.90;;;;;;5093605;28;20039;-75
2023/10/14 04:56:57;;;;;;;;;;;10.80;99.90;;;;;;5094127;28;20044;-75
2023/10/14 04:59:24;;;;;;;0.82;0.60;;;10.80;99.90;;;;;;5093725;28;19916;-75
2023/10/14 05:01:51;;;;;;;0.88;0.60;;;10.70;99.90;;;;;;5095855;28;20032;-75
2023/10/14 05:04:20;;;;;;;0.60;0.60;;;10.70;99.90;;;;;;5097852;28;20043;-75
2023/10/14 05:06:53;;;;;;;0.52;0.52;;;10.90;99.90;;;;;;5097693;28;20040;-76
2023/10/14 05:09:30;;;;;;;1.35;0.60;;;10.60;99.90;;;;;;5097432;28;20064;-76
2023/10/14 05:12:00;;;;;;;0.50;0.50;;;10.60;99.90;;;;;;5097829;28;20378;-76
2023/10/14 05:14:37;;;;;;;0.50;0.50;;;10.60;99.90;;;;;;5097705;28;20047;-76
2023/10/14 05:17:14;;;;;;;0.57;0.57;;;11.20;99.90;;;;;;5097517;28;20036;-76
2023/10/14 05:19:43;;;;;;;0.90;0.90;;;10.50;99.90;;;;;;5098073;28;20051;-77
2023/10/14 05:22:18;;;;;;;0.50;0.50;;;10.50;99.90;;;;;;5097384;28;20086;-75
2023/10/14 05:24:48;;;;;;;0.52;0.52;;;10.40;99.90;;;;;;5097651;28;20086;-75
2023/10/14 05:27:17;;;;;;;0.60;0.60;;;10.30;99.90;;;;;;5097206;28;20095;-74
2023/10/14 05:29:50;;;;;;;0.60;0.60;;;10.30;99.90;;;;;;5097273;28;20105;-73
2023/10/14 05:32:24;;;;;;;0.60;0.60;;;10.50;99.90;;;;;;5097380;28;20047;-73
2023/10/14 05:34:51;;;;;;;0.50;0.50;;;10.30;99.90;;;;;;5097498;28;20048;-73
2023/10/14 05:37:16;;;;;;;;;;;10.30;99.90;;;;;;5096283;28;20468;-74
2023/10/14 05:39:43;;;;;;;0.60;0.60;;;10.30;99.90;;;;;;5097069;28;19922;-73
2023/10/14 05:42:21;;;;;;;0.50;0.50;;;10.30;99.90;;;;;;5097088;28;20035;-73
2023/10/14 05:44:47;;;;;;;0.60;0.60;;;10.30;99.90;;;;;;5097108;28;20055;-73
2023/10/14 05:47:22;;;;;;;0.60;0.60;;;10.40;99.90;;;;;;5097145;28;20450;-72
2023/10/14 05:49:48;;;;;;;0.70;0.70;;;10.30;99.90;;;;;;5096915;28;20040;-73
2023/10/14 05:52:14;;;;;;;0.60;0.60;;;10.20;99.90;;;;;;5096883;28;20086;-73
2023/10/14 05:54:45;;;;;;;0.50;0.50;;;10.40;99.90;;;;;;5096902;28;20031;-73
2023/10/14 05:57:10;;;;;;;0.55;0.55;;;10.20;99.90;;;;;;5097232;28;20063;-74
2023/10/14 05:59:37;;;;;;;0.60;0.60;;;10.20;99.90;;;;;;5096744;28;20463;-73
2023/10/14 06:02:07;;;;;;;0.60;0.60;;;10.90;99.90;;;;;;5097082;28;20044;-73
2023/10/14 06:04:39;;;;;;;0.60;0.60;;;10.20;99.90;;;;;;5095569;28;20086;-73
2023/10/14 06:07:18;;;;;;;0.60;0.60;;;10.10;99.90;;;;;;5096678;28;20383;-73
2023/10/14 06:09:45;;;;;;;0.60;0.60;;;10.10;99.90;;;;;;5097127;28;20106;-73
2023/10/14 06:12:16;;;;;;;0.60;0.60;;;10.00;99.90;;;;;;5096167;28;20127;-73
2023/10/14 06:14:46;;;;;;;0.50;0.50;;;9.70;99.90;;;;;;5096510;28;20039;-73
2023/10/14 06:17:12;;;;;;;0.50;0.50;;;10.00;99.90;;;;;;5096635;28;20122;-73
2023/10/14 06:19:38;;;;;;;0.60;0.60;;;10.00;99.90;;;;;;5096446;28;20040;-76
2023/10/14 06:22:04;;;;;;;0.50;0.50;;;10.60;99.90;;;;;;5096246;28;20541;-71
2023/10/14 06:24:33;;;;;;;0.60;0.60;;;9.90;99.90;;;;;;5096277;28;20051;-72
2023/10/14 06:27:08;;;;;;;0.60;0.60;;;9.90;99.90;;;;;;5095189;28;20135;-78
2023/10/14 06:29:35;;;;;;;0.80;0.80;;;9.80;99.90;;;;;;5096530;28;20075;-77
2023/10/14 06:32:03;;;;;;;1.02;0.63;;;9.80;99.90;;;;;;5096320;28;20426;-77
2023/10/14 06:34:34;;;;;;;0.50;0.50;;;9.80;99.90;;;;;;5096125;28;20116;-78
2023/10/14 06:37:02;;;;;;;0.60;0.60;;;9.80;99.90;;;;;;5096644;28;20036;-77
2023/10/14 06:39:28;;;;;;;0.60;0.60;;;9.80;99.90;;;;;;5096193;28;20031;-78
2023/10/14 06:41:55;;;;;;;0.60;0.60;;;9.80;99.90;;;;;;5096005;28;20078;-74
2023/10/14 06:44:26;;;;;;;0.50;0.50;;;10.10;99.90;;;;;;5095595;28;20050;-75
2023/10/14 06:46:53;;;;;;;0.60;0.60;;;9.70;99.90;;;;;;5095849;28;20464;-78
2023/10/14 06:49:22;;;;;;;0.60;0.60;;;9.70;99.90;;;;;;5095725;28;20085;-75
2023/10/14 06:51:51;;;;;;;0.55;0.55;;;9.70;99.90;;;;;;5095948;28;20036;-76
2023/10/14 06:54:25;;;;;;;0.60;0.60;;;10.30;99.90;;;;;;5095784;28;20048;-75
2023/10/14 06:56:52;;;;;;;0.60;0.60;;;9.80;99.90;;;;;;5096012;28;20123;-76
2023/10/14 06:59:17;;;;;;;2.70;0.70;;;9.70;99.90;;;;;;5095243;28;20044;-76
2023/10/14 07:01:43;;;;;;;0.57;0.57;;;9.80;99.90;;;;;;5095703;28;20036;-74
2023/10/14 07:04:12;;;;;;;1.10;0.60;;;9.80;99.90;;;;;;5095848;28;20051;-75
2023/10/14 07:06:42;;;;;;;0.60;0.60;;;9.80;99.90;;;;;;5095714;28;20062;-76
2023/10/14 07:09:17;;;;;;;0.60;0.60;;;9.80;99.90;;;;;;5095631;28;20052;-77
2023/10/14 07:11:43;;;;;;;0.60;0.60;;;9.90;99.90;;;;;;5095497;28;20047;-75
2023/10/14 07:14:09;;;;;;;0.60;0.60;;;9.90;99.90;;;;;;5095401;28;20464;-80
2023/10/14 07:16:35;;;;;;;0.60;0.60;;;10.00;99.90;;;;;;5095271;28;20047;-82
2023/10/14 07:19:01;;;;;;;0.60;0.60;;;10.00;99.90;;;;;;5094316;28;20044;-76
2023/10/14 07:21:29;;;;;;;0.60;0.60;;;10.10;99.90;;;;;;5095255;28;20120;-79
2023/10/14 07:24:05;;;;;;;0.60;0.60;;;10.10;99.90;;;;;;5094412;28;20085;-81
2023/10/14 07:26:36;;;;;;;0.60;0.60;;;10.20;99.90;;;;;;5094159;28;20126;-78
2023/10/14 07:29:02;;;;;;;0.60;0.60;;;10.30;99.90;;;;;;5094871;28;20597;-80
2023/10/14 07:31:31;;;;;;;0.60;0.60;;;10.40;99.90;;;;;;5095013;28;20044;-79
2023/10/14 07:34:02;;;;;;;0.50;0.50;;;10.50;99.90;;;;;;5094933;28;20048;-77
2023/10/14 07:36:31;;;;;;;0.50;0.50;;;10.90;99.90;;;;;;5094960;28;20046;-78
2023/10/14 07:41:41;;;;;;;0.60;0.60;;;10.70;99.90;;;;;;5094758;28;20048;-74
2023/10/14 07:44:09;;;;;;;0.53;0.53;;;10.80;99.90;;;;;;5094669;28;20105;-73
2023/10/14 07:46:35;;;;;;;0.55;0.55;;;10.90;99.90;;;;;;5094649;28;20040;-73
2023/10/14 07:49:02;;;;;;;0.50;0.50;;;11.00;99.90;;;;;;5094641;28;20032;-76
2023/10/14 07:51:28;;;;;;;0.60;0.60;;;11.00;99.90;;;;;;5094733;28;20053;-76
2023/10/14 07:53:54;;;;;;;0.60;0.60;;;11.60;99.90;;;;;;5094361;28;20108;-75
2023/10/14 07:56:22;;;;;;;0.60;0.60;;;11.10;99.90;;;;;;5094507;28;20491;-77
2023/10/14 07:58:48;;;;;;;0.60;0.60;;;11.20;99.90;;;;;;5093781;28;20122;-80
2023/10/14 08:01:16;;;;;;;0.60;0.60;;;11.20;99.90;;;;;;5094378;28;20439;-77
2023/10/14 08:03:42;;;;;;;0.60;0.60;;;11.30;99.90;;;;;;5094483;28;20040;-75
2023/10/14 08:06:10;;;;;;;0.50;0.50;;;11.40;99.90;;;;;;5094180;28;20047;-75
2023/10/14 08:08:42;;;;;;;0.50;0.50;;;11.40;99.90;;;;;;5093712;28;20113;-75
2023/10/14 08:11:08;;;;;;;0.60;0.60;;;11.50;99.90;;;;;;5093899;28;20040;-74
2023/10/14 08:13:34;;;;;;;0.83;0.83;;;11.50;99.90;;;;;;5094237;28;20067;-75
2023/10/14 08:16:00;;;;;;;0.60;0.60;;;11.60;99.90;;;;;;5094159;28;20341;-74
2023/10/14 08:18:25;;;;;;;0.50;0.50;;;11.70;99.90;;;;;;5094154;28;20133;-75
2023/10/14 08:20:55;;;;;;;0.60;0.60;;;11.70;99.90;;;;;;5093764;28;20039;-75
2023/10/14 08:23:22;;;;;;;0.50;0.50;;;12.20;99.90;;;;;;5093046;28;20365;-74
2023/10/14 08:25:53;;;;;;;0.50;0.50;;;11.80;99.90;;;;;;5093882;28;20040;-75
2023/10/14 08:28:29;;;;;;;0.70;0.70;;;11.90;99.90;;;;;;5094501;28;20079;-74
2023/10/14 08:30:57;;;;;;;0.50;0.50;;;12.00;99.90;;;;;;5093954;28;20032;-74
2023/10/14 08:33:24;;;;;;;0.70;0.70;;;12.00;99.90;;;;;;5093658;28;20040;-74
2023/10/14 08:35:51;;;;;;;0.40;0.40;;;12.10;99.90;;;;;;5093787;28;20058;-76
2023/10/14 08:38:21;;;;;;;0.50;0.50;;;12.20;99.90;;;;;;5093890;28;20036;-73
2023/10/14 08:40:52;;;;;;;0.60;0.60;;;12.10;99.90;;;;;;5094285;28;20414;-74
2023/10/14 08:43:23;;;;;;;0.45;0.45;;;12.40;99.90;;;;;;5093896;28;20043;-77
2023/10/14 08:45:49;;;;;;;0.50;0.50;;;12.80;99.90;;;;;;5093769;28;20069;-77
2023/10/14 08:48:16;;;;;;;0.50;0.50;;;12.50;99.90;;;;;;5093586;28;20545;-74
2023/10/14 08:50:42;;;;;;;0.65;0.65;;;12.60;99.90;;;;;;5092735;28;20186;-74
2023/10/14 08:53:15;;;;;;;0.50;0.50;;;12.70;99.90;;;;;;5093443;28;20372;-74
2023/10/14 08:55:44;;;;;;;0.50;0.50;;;12.70;99.90;;;;;;5092960;28;20047;-75
2023/10/14 08:58:13;;;;;;;0.50;0.50;;;12.80;99.90;;;;;;5090543;28;20037;-74
2023/10/14 09:00:41;;;;;;;1.15;1.15;;;12.90;99.90;;;;;;5092043;28;20075;-74
2023/10/14 09:03:09;;;;;;;1.05;0.60;;;13.00;99.90;;;;;;5092982;28;20044;-73
2023/10/14 09:05:40;;;;;;;0.45;0.45;;;13.00;99.90;;;;;;5093310;28;20036;-73
2023/10/14 09:08:19;;;;;;;0.63;0.63;;;13.00;99.90;;;;;;5092987;28;20127;-74
2023/10/14 09:10:45;;;;;;;0.50;0.50;;;13.10;99.90;;;;;;5093042;28;20119;-73
2023/10/14 09:13:19;;;;;;;0.50;0.50;;;13.20;99.90;;;;;;5093408;28;20147;-75
2023/10/14 09:15:44;;;;;;;0.50;0.50;;;13.30;99.90;;;;;;5093538;28;20051;-74
2023/10/14 09:18:27;;;;;;;0.60;0.60;;;13.40;99.90;;;;;;5093039;28;20387;-73
2023/10/14 09:20:54;;;;;;;0.50;0.50;;;13.40;99.90;;;;;;5093742;28;20105;-73
2023/10/14 09:23:44;;;;;;;0.60;0.60;;;13.40;99.90;;;;;;5093372;28;20051;-74
2023/10/14 09:26:08;;;;;;;0.50;0.50;;;13.30;99.90;;;;;;5092870;28;20097;-73
2023/10/14 09:28:40;;;;;;;0.50;0.50;;;13.30;99.90;;;;;;5093715;28;20130;-74
2023/10/14 09:31:08;;;;;;;0.70;0.70;;;13.20;99.90;;;;;;5093812;28;20395;-74
2023/10/14 09:33:35;;;;;;;0.45;0.45;;;13.20;99.90;;;;;;5093199;28;20044;-74
2023/10/14 09:36:06;;;;;;;0.50;0.50;;;13.20;99.90;;;;;;5093211;28;20044;-74
2023/10/14 09:38:34;;;;;;;0.60;0.60;;;13.30;99.90;;;;;;5093135;28;20036;-73
2023/10/14 09:41:05;;;;;;;1.88;0.60;;;13.30;99.90;;;;;;5093754;28;20043;-74
2023/10/14 09:43:32;;;;;;;0.50;0.50;;;13.30;99.90;;;;;;5093681;28;20153;-73
2023/10/14 09:46:03;;;;;;;1.48;0.65;;;13.30;99.90;;;;;;5093217;28;20032;-72
2023/10/14 09:48:31;;;;;;;0.50;0.50;;;13.40;99.90;;;;;;5096330;28;20418;-73
2023/10/14 09:51:00;;;;;;;0.50;0.50;;;13.50;99.90;;;;;;5096997;28;20032;-73
2023/10/14 09:53:28;;;;;;;0.50;0.50;;;13.50;99.90;;;;;;5096848;28;20055;-74
2023/10/14 09:55:57;;;;;;;1.08;0.98;;;13.50;99.90;;;;;;5096806;28;20044;-73
2023/10/14 09:58:30;;;;;;;0.47;0.47;;;13.50;99.90;;;;;;5096819;28;20383;-74
2023/10/14 10:01:01;;;;;;;2.25;0.95;;;13.60;99.90;;;;;;5097050;28;20044;-73
2023/10/14 10:03:31;;;;;;;0.50;0.50;;;13.60;99.90;;;;;;5096783;28;20040;-73
2023/10/14 10:06:06;;;;;;;0.70;0.70;;;13.60;99.90;;;;;;5096689;28;20047;-74
2023/10/14 10:08:46;;;;;;;0.52;0.52;;;13.60;99.90;;;;;;5096464;28;20356;-74
2023/10/14 10:11:12;;;;;;;0.57;0.57;;;13.70;99.90;;;;;;5096847;28;20040;-73
2023/10/14 10:13:41;;;;;;;0.83;0.83;;;13.70;99.90;;;;;;5095533;28;20034;-73
2023/10/14 10:16:07;;;;;;;0.60;0.60;;;13.80;99.90;;;;;;5096475;28;20123;-73
2023/10/14 10:18:56;;;;;;;0.63;0.63;;;13.70;99.90;;;;;;5096156;28;20119;-73
2023/10/14 10:21:31;;;;;;;0.50;0.50;;;13.60;99.90;;;;;;5096470;28;20422;-73
2023/10/14 10:24:15;;;;;;;1.40;0.90;;;13.50;99.90;;;;;;5096325;28;20495;-73
2023/10/14 10:27:08;;;;;;;1.17;1.08;;;13.40;99.90;;;;;;5096082;28;20413;-74
2023/10/14 10:29:45;;;;;;;0.50;0.50;;;13.40;99.90;;;;;;5096330;28;20035;-74
2023/10/14 10:32:18;;;;;;;0.50;0.50;;;13.30;99.90;;;;;;5096481;28;20039;-74
2023/10/14 10:35:05;;;;;;;0.60;0.60;;;13.30;99.90;;;;;;5096273;28;20048;-74
2023/10/14 10:37:34;;;;;;;0.40;0.40;;;13.20;99.90;;;;;;5096107;28;20098;-74
2023/10/14 10:40:05;;;;;;;0.50;0.50;;;13.10;99.90;;;;;;5096292;28;20047;-74
2023/10/14 10:42:31;;;;;;;0.88;0.88;;;13.10;99.90;;;;;;5096471;28;20043;-74
2023/10/14 10:44:58;;;;;;;0.60;0.60;;;13.10;99.90;;;;;;5095947;28;20047;-74
2023/10/14 10:47:23;;;;;;;0.50;0.50;;;12.90;99.90;;;;;;5095831;28;20036;-74
2023/10/14 10:49:58;;;;;;;0.57;0.57;;;12.80;99.90;;;;;;5095545;28;20373;-74
2023/10/14 10:52:25;;;;;;;0.50;0.50;;;12.90;99.90;;;;;;5095857;28;20058;-74
2023/10/14 10:54:52;;;;;;;0.50;0.50;;;12.90;99.90;;;;;;5095803;28;20081;-74
2023/10/14 10:57:19;;;;;;;0.50;0.50;;;13.00;99.90;;;;;;5095778;28;20491;-73
2023/10/14 10:59:46;;;;;;;0.47;0.47;;;13.10;99.90;;;;;;5094534;28;20043;-73
2023/10/14 11:02:13;;;;;;;0.55;0.55;;;13.30;99.90;;;;;;5095397;28;20068;-73
2023/10/14 11:04:41;;;;;;;0.50;0.50;;;13.40;99.90;;;;;;5095532;28;20058;-73
2023/10/14 11:07:11;;;;;;;1.27;0.50;;;13.50;99.90;;;;;;5095794;28;20413;-73
2023/10/14 11:09:39;;;;;;;0.93;0.93;;;13.60;99.90;;;;;;5093800;28;20058;-73
2023/10/14 11:12:11;;;;;;;0.60;0.60;;;13.60;99.90;;;;;;5095383;28;20353;-73
2023/10/14 11:14:38;;;;;;;0.40;0.40;;;13.50;99.90;;;;;;5094257;28;20032;-73
2023/10/14 11:17:06;;;;;;;0.60;0.60;;;13.50;99.90;;;;;;5095176;28;20040;-73
2023/10/14 11:19:32;;;;;;;0.40;0.40;;;13.50;99.90;;;;;;5095665;28;20426;-73
2023/10/14 11:22:00;;;;;;;0.60;0.60;;;13.50;99.90;;;;;;5095234;28;20071;-73
2023/10/14 11:24:26;;;;;;;0.70;0.50;;;13.60;99.90;;;;;;5095149;28;20052;-73
2023/10/14 11:26:53;;;;;;;0.60;0.60;;;13.70;99.90;;;;;;5095178;28;20418;-73
2023/10/14 11:29:24;;;;;;;0.40;0.40;;;13.60;99.90;;;;;;5095044;28;20038;-73
2023/10/14 11:31:57;;;;;;;0.40;0.40;;;13.50;99.90;;;;;;5094822;28;20480;-73
2023/10/14 11:34:22;;;;;;;0.50;0.50;;;13.50;99.90;;;;;;5094888;28;20040;-73
2023/10/14 11:36:48;;;;;;;1.13;1.03;;;13.50;99.90;;;;;;5094943;28;20058;-73
2023/10/14 11:39:18;;;;;;;0.40;0.40;;;13.40;99.90;;;;;;5094969;28;20040;-73
2023/10/14 11:41:45;;;;;;;0.60;0.60;;;13.40;99.90;;;;;;5094996;28;20108;-73
2023/10/14 11:44:17;;;;;;;1.65;0.77;;;13.80;99.90;;;;;;5094518;28;20047;-73
2023/10/14 11:46:43;;;;;;;0.70;0.70;;;13.50;99.90;;;;;;5095077;28;20040;-74
2023/10/14 11:49:14;;;;;;;0.50;0.50;;;13.70;99.90;;;;;;5094620;28;20048;-73
2023/10/14 11:51:45;;;;;;;0.60;0.60;;;13.80;99.90;;;;;;5094639;28;20051;-74
2023/10/14 11:54:11;;;;;;;0.40;0.40;;;13.90;99.90;;;;;;5094629;28;20495;-74
2023/10/14 11:56:40;;;;;;;0.40;0.40;;;14.00;99.90;;;;;;5094507;28;20072;-74
2023/10/14 11:59:06;;;;;;;0.60;0.60;;;14.10;99.90;;;;;;5094502;28;20036;-74
2023/10/14 12:01:37;;;;;;;0.60;0.60;;;14.30;99.90;;;;;;5094501;28;20040;-73
2023/10/14 12:04:03;;;;;;;0.40;0.40;;;14.50;99.90;;;;;;5094738;28;20051;-74
2023/10/14 12:06:30;;;;;;;0.60;0.60;;;14.70;99.90;;;;;;5094276;28;20036;-73
2023/10/14 12:08:57;;;;;;;0.50;0.50;;;14.80;99.90;;;;;;5094676;28;20285;-73
2023/10/14 12:11:24;;;;;;;0.50;0.50;;;14.90;99.90;;;;;;5093709;28;20588;-73
2023/10/14 12:13:50;;;;;;;;;;;14.90;99.90;;;;;;5094764;28;20050;-74
2023/10/14 12:16:17;;;;;;;0.50;0.50;;;14.80;99.90;;;;;;5094296;28;20331;-73
2023/10/14 12:18:45;;;;;;;0.40;0.40;;;14.80;99.90;;;;;;5094199;28;20541;-74
2023/10/14 12:21:11;;;;;;;0.43;0.43;;;14.80;99.90;;;;;;5094174;28;20123;-73
2023/10/14 12:23:38;;;;;;;0.40;0.40;;;14.70;99.90;;;;;;5093905;28;20075;-73
2023/10/14 12:26:04;;;;;;;0.57;0.57;;;14.80;99.90;;;;;;5093772;28;20042;-73
2023/10/14 12:28:33;;;;;;;0.40;0.40;;;14.80;99.90;;;;;;5092691;28;20130;-73
2023/10/14 12:31:02;;;;;;;0.95;0.85;;;14.80;99.90;;;;;;5093967;28;20538;-73
2023/10/14 12:33:31;;;;;;;0.40;0.40;;;14.90;99.90;;;;;;5093881;28;20385;-73
2023/10/14 12:36:06;;;;;;;0.60;0.60;;;14.90;99.90;;;;;;5093931;28;20036;-73
2023/10/14 12:38:32;;;;;;;0.50;0.50;;;14.80;99.90;;;;;;5093920;28;20044;-74
2023/10/14 12:40:58;;;;;;;0.40;0.40;;;14.60;99.90;;;;;;5094120;28;20431;-76
2023/10/14 12:43:33;;;;;;;0.50;0.50;;;14.40;99.90;;;;;;5094666;28;20071;-75
2023/10/14 12:48:50;;;;;;;0.50;0.50;;;13.80;99.90;;;;;;5093533;28;20040;-76
2023/10/14 12:51:18;;;;;;;0.40;0.40;;;13.60;99.90;;;;;;5093546;28;20040;-77
2023/10/14 12:53:47;;;;;;;0.40;0.40;;;13.40;99.90;;;;;;5093724;28;20039;-76
2023/10/14 12:56:14;;;;;;;0.45;0.45;;;13.70;99.90;;;;;;5093688;28;20044;-77
2023/10/14 12:58:43;;;;;;;0.50;0.50;;;13.20;99.90;;;;;;5093612;28;20547;-77
2023/10/14 13:01:16;;;;;;;0.50;0.50;;;13.10;99.90;;;;;;5093663;28;20048;-76
2023/10/14 13:03:51;;;;;;;0.50;0.50;;;13.10;99.90;;;;;;5094053;28;20036;-77
2023/10/14 13:06:22;;;;;;;0.45;0.45;;;13.00;99.90;;;;;;5093630;28;20044;-76
2023/10/14 13:08:49;;;;;;;0.50;0.50;;;12.90;99.90;;;;;;5093102;28;20063;-76
2023/10/14 13:11:17;;;;;;;0.50;0.50;;;13.50;99.90;;;;;;5093704;28;20118;-76
2023/10/14 13:13:46;;;;;;;0.50;0.50;;;12.80;99.90;;;;;;5093395;28;20536;-76
2023/10/14 13:16:12;;;;;;;0.50;0.50;;;12.80;99.90;;;;;;5093339;28;20031;-77
2023/10/14 13:18:37;;;;;;;0.50;0.50;;;12.90;99.90;;;;;;5093819;28;20093;-75
2023/10/14 13:21:05;;;;;;;0.50;0.50;;;12.90;99.90;;;;;;5093680;28;20040;-76
2023/10/14 13:23:31;;;;;;;0.60;0.60;;;13.20;99.90;;;;;;5096569;28;20035;-76
2023/10/14 13:25:57;;;;;;;0.70;0.70;;;13.10;99.90;;;;;;5097444;28;20409;-75
2023/10/14 13:28:23;;;;;;;0.50;0.50;;;13.30;99.90;;;;;;5095849;28;20036;-76